createdAt,value
2017-02-10T00:00:35.074Z,45.38
2017-02-10T00:01:45.235Z,45.57
2017-02-10T00:02:55.444Z,45.57
2017-02-10T00:04:05.172Z,45.57
2017-02-10T00:05:16.213Z,45.48
2017-02-10T00:06:25.940Z,45.48
2017-02-10T00:07:36.113Z,45.48
2017-02-10T00:08:45.895Z,45.57
2017-02-10T00:09:55.182Z,45.76
2017-02-10T00:11:05.352Z,45.86
2017-02-10T00:12:15.074Z,45.76
2017-02-10T00:13:24.834Z,45.57
2017-02-10T00:14:35.041Z,46.15
2017-02-10T00:15:44.754Z,45.86
2017-02-10T00:16:54.043Z,46.25
2017-02-10T00:18:03.768Z,46.15
2017-02-10T00:19:13.060Z,46.25
2017-02-10T00:20:23.710Z,46.53
2017-02-10T00:21:33.887Z,46.82
2017-02-10T00:22:43.178Z,46.82
2017-02-10T00:23:52.898Z,46.82
2017-02-10T00:25:02.183Z,46.72
2017-02-10T00:26:12.407Z,46.62
2017-02-10T00:27:22.589Z,46.53
2017-02-10T00:28:32.322Z,46.44
2017-02-10T00:29:42.486Z,46.62
2017-02-10T00:30:51.776Z,46.62
2017-02-10T00:32:01.988Z,46.53
2017-02-10T00:33:12.146Z,46.82
2017-02-10T00:34:22.304Z,46.72
2017-02-10T00:35:32.037Z,46.82
2017-02-10T00:36:42.193Z,46.62
2017-02-10T00:37:52.413Z,46.44
2017-02-10T00:39:02.133Z,46.53
2017-02-10T00:40:11.866Z,46.44
2017-02-10T00:41:21.585Z,46.72
2017-02-10T00:42:31.744Z,46.91
2017-02-10T00:43:41.081Z,46.91
2017-02-10T00:44:51.681Z,46.44
2017-02-10T00:46:01.844Z,46.44
2017-02-10T00:47:11.567Z,46.62
2017-02-10T00:48:21.722Z,46.34
2017-02-10T00:49:31.051Z,46.91
2017-02-10T00:50:41.216Z,46.72
2017-02-10T00:51:50.933Z,47.01
2017-02-10T00:53:00.219Z,46.82
2017-02-10T00:54:09.952Z,46.51
2017-02-10T00:55:19.737Z,46.8
2017-02-10T00:56:29.470Z,46.41
2017-02-10T00:57:40.070Z,46.8
2017-02-10T00:58:49.352Z,46.7
2017-02-10T00:59:59.069Z,46.7
2017-02-10T01:01:08.851Z,46.8
2017-02-10T01:02:19.015Z,46.8
2017-02-10T01:03:28.305Z,46.8
2017-02-10T01:04:37.591Z,46.8
2017-02-10T01:05:47.794Z,46.41
2017-02-10T01:06:57.565Z,46.8
2017-02-10T01:08:06.848Z,46.61
2017-02-10T01:09:16.571Z,46.61
2017-02-10T01:10:25.856Z,46.89
2017-02-10T01:11:35.585Z,46.8
2017-02-10T01:12:44.948Z,47.08
2017-02-10T01:13:54.243Z,46.89
2017-02-10T01:15:04.847Z,46.8
2017-02-10T01:16:14.570Z,46.89
2017-02-10T01:17:24.293Z,46.98
2017-02-10T01:18:34.513Z,46.98
2017-02-10T01:19:44.682Z,46.8
2017-02-10T01:20:55.298Z,47.08
2017-02-10T01:22:05.031Z,46.8
2017-02-10T01:23:14.753Z,46.89
2017-02-10T01:24:24.085Z,46.98
2017-02-10T01:25:34.708Z,46.89
2017-02-10T01:26:44.419Z,46.98
2017-02-10T01:27:54.614Z,47.08
2017-02-10T01:29:04.783Z,46.8
2017-02-10T01:30:15.436Z,46.8
2017-02-10T01:31:26.033Z,46.89
2017-02-10T01:32:35.323Z,46.98
2017-02-10T01:33:45.039Z,47.18
2017-02-10T01:34:55.197Z,47.37
2017-02-10T01:36:05.438Z,47.18
2017-02-10T01:37:14.725Z,47.08
2017-02-10T01:38:24.891Z,46.98
2017-02-10T01:39:35.046Z,46.98
2017-02-10T01:40:45.218Z,47.08
2017-02-10T01:41:54.554Z,47.18
2017-02-10T01:43:04.281Z,47.37
2017-02-10T01:44:14.894Z,47.27
2017-02-10T01:45:24.178Z,47.18
2017-02-10T01:46:33.904Z,47.08
2017-02-10T01:47:43.682Z,46.98
2017-02-10T01:48:52.971Z,46.98
2017-02-10T01:50:02.699Z,47.27
2017-02-10T01:51:12.025Z,47.66
2017-02-10T01:52:22.183Z,46.98
2017-02-10T01:53:31.515Z,47.37
2017-02-10T01:54:41.681Z,47.37
2017-02-10T01:55:51.398Z,47.18
2017-02-10T01:57:01.995Z,47.18
2017-02-10T01:58:11.723Z,47.47
2017-02-10T01:59:21.058Z,47.56
2017-02-10T02:00:30.775Z,47.66
2017-02-10T02:01:41.371Z,47.75
2017-02-10T02:02:51.529Z,47.37
2017-02-10T02:04:01.686Z,47.56
2017-02-10T02:05:11.463Z,47.47
2017-02-10T02:06:21.640Z,47.56
2017-02-10T02:07:31.801Z,47.37
2017-02-10T02:08:41.082Z,47.27
2017-02-10T02:09:50.807Z,47.56
2017-02-10T02:11:01.884Z,47.47
2017-02-10T02:12:12.486Z,47.66
2017-02-10T02:13:21.779Z,47.37
2017-02-10T02:14:31.931Z,47.27
2017-02-10T02:15:41.658Z,47.18
2017-02-10T02:16:51.424Z,47.06
2017-02-10T02:18:02.037Z,47.18
2017-02-10T02:19:11.766Z,46.98
2017-02-10T02:20:21.053Z,47.18
2017-02-10T02:21:31.378Z,47.44
2017-02-10T02:22:41.297Z,47.34
2017-02-10T02:23:51.502Z,47.18
2017-02-10T02:25:00.788Z,47.16
2017-02-10T02:26:10.953Z,47.25
2017-02-10T02:27:20.685Z,47.34
2017-02-10T02:28:30.015Z,47.44
2017-02-10T02:29:40.180Z,47.06
2017-02-10T02:30:49.914Z,47.16
2017-02-10T02:31:59.645Z,47.25
2017-02-10T02:33:09.384Z,47.16
2017-02-10T02:34:18.719Z,47.25
2017-02-10T02:35:29.314Z,47.06
2017-02-10T02:36:38.604Z,47.06
2017-02-10T02:37:49.195Z,47.34
2017-02-10T02:38:59.792Z,47.44
2017-02-10T02:40:09.125Z,47.16
2017-02-10T02:41:19.293Z,47.06
2017-02-10T02:42:29.025Z,47.25
2017-02-10T02:43:38.759Z,47.44
2017-02-10T02:44:48.040Z,47.34
2017-02-10T02:45:58.260Z,47.37
2017-02-10T02:47:08.417Z,47.34
2017-02-10T02:48:18.581Z,47.34
2017-02-10T02:49:27.867Z,47.25
2017-02-10T02:50:38.033Z,47.34
2017-02-10T02:51:47.815Z,47.16
2017-02-10T02:52:57.975Z,47.16
2017-02-10T02:54:07.260Z,47.63
2017-02-10T02:55:16.548Z,47.25
2017-02-10T02:56:26.738Z,46.96
2017-02-10T02:57:37.390Z,47.06
2017-02-10T02:58:47.988Z,47.73
2017-02-10T02:59:57.709Z,46.96
2017-02-10T03:01:08.310Z,46.87
2017-02-10T03:02:19.347Z,46.96
2017-02-10T03:03:30.002Z,46.87
2017-02-10T03:04:39.290Z,47.06
2017-02-10T03:05:49.460Z,46.96
2017-02-10T03:06:58.746Z,47.34
2017-02-10T03:08:08.461Z,47.34
2017-02-10T03:09:18.232Z,46.96
2017-02-10T03:10:27.964Z,47.44
2017-02-10T03:11:38.571Z,47.73
2017-02-10T03:12:48.738Z,47.73
2017-02-10T03:13:59.344Z,47.73
2017-02-10T03:15:09.562Z,47.44
2017-02-10T03:16:19.711Z,47.73
2017-02-10T03:17:28.992Z,47.73
2017-02-10T03:18:38.275Z,47.53
2017-02-10T03:19:48.446Z,47.63
2017-02-10T03:20:58.647Z,47.63
2017-02-10T03:22:08.811Z,47.44
2017-02-10T03:23:18.975Z,47.34
2017-02-10T03:24:28.707Z,47.25
2017-02-10T03:25:38.875Z,47.34
2017-02-10T03:26:49.242Z,47.44
2017-02-10T03:27:58.975Z,47.25
2017-02-10T03:29:08.264Z,47.25
2017-02-10T03:30:17.997Z,47.73
2017-02-10T03:31:27.718Z,47.73
2017-02-10T03:32:37.479Z,47.34
2017-02-10T03:33:47.192Z,47.44
2017-02-10T03:34:57.789Z,47.25
2017-02-10T03:36:07.081Z,47.73
2017-02-10T03:37:16.802Z,47.63
2017-02-10T03:38:27.004Z,47.73
2017-02-10T03:39:37.169Z,47.73
2017-02-10T03:40:46.899Z,47.53
2017-02-10T03:41:56.189Z,47.44
2017-02-10T03:43:06.350Z,47.25
2017-02-10T03:44:16.558Z,47.44
2017-02-10T03:45:26.280Z,47.53
2017-02-10T03:46:35.562Z,47.53
2017-02-10T03:47:45.294Z,47.44
2017-02-10T03:48:55.446Z,47.44
2017-02-10T03:50:05.657Z,47.53
2017-02-10T03:51:14.945Z,47.73
2017-02-10T03:52:24.668Z,47.53
2017-02-10T03:53:34.391Z,47.25
2017-02-10T03:54:44.118Z,47.34
2017-02-10T03:55:53.899Z,47.34
2017-02-10T03:57:03.628Z,47.73
2017-02-10T03:58:13.796Z,47.63
2017-02-10T03:59:23.075Z,47.63
2017-02-10T04:00:32.804Z,47.34
2017-02-10T04:01:42.585Z,47.73
2017-02-10T04:02:52.760Z,47.82
2017-02-10T04:04:02.480Z,47.25
2017-02-10T04:05:12.194Z,47.25
2017-02-10T04:06:22.345Z,47.44
2017-02-10T04:07:32.997Z,47.25
2017-02-10T04:08:43.164Z,47.73
2017-02-10T04:09:52.893Z,47.63
2017-02-10T04:11:02.185Z,47.63
2017-02-10T04:12:13.216Z,47.25
2017-02-10T04:13:22.547Z,47.53
2017-02-10T04:14:32.270Z,47.53
2017-02-10T04:15:42.433Z,47.25
2017-02-10T04:16:52.593Z,47.73
2017-02-10T04:18:01.894Z,47.71
2017-02-10T04:19:11.234Z,47.71
2017-02-10T04:20:20.964Z,47.44
2017-02-10T04:21:30.253Z,47.44
2017-02-10T04:22:40.845Z,47.53
2017-02-10T04:23:50.127Z,47.53
2017-02-10T04:25:00.789Z,47.63
2017-02-10T04:26:10.069Z,47.53
2017-02-10T04:27:19.358Z,47.53
2017-02-10T04:28:28.643Z,47.52
2017-02-10T04:29:37.925Z,47.34
2017-02-10T04:30:47.259Z,47.53
2017-02-10T04:31:56.980Z,47.92
2017-02-10T04:33:07.580Z,47.42
2017-02-10T04:34:17.302Z,47.42
2017-02-10T04:35:27.023Z,47.32
2017-02-10T04:36:37.676Z,47.99
2017-02-10T04:37:47.393Z,47.71
2017-02-10T04:38:57.555Z,48.38
2017-02-10T04:40:06.845Z,48.18
2017-02-10T04:41:16.572Z,48.28
2017-02-10T04:42:26.782Z,48.28
2017-02-10T04:43:36.951Z,48.18
2017-02-10T04:44:46.667Z,48.18
2017-02-10T04:45:56.384Z,48.02
2017-02-10T04:47:06.102Z,48.09
2017-02-10T04:48:15.436Z,47.99
2017-02-10T04:49:25.157Z,48.09
2017-02-10T04:50:36.199Z,48.09
2017-02-10T04:51:45.487Z,47.89
2017-02-10T04:52:55.213Z,47.89
2017-02-10T04:54:04.987Z,47.99
2017-02-10T04:55:15.594Z,48.18
2017-02-10T04:56:25.760Z,47.89
2017-02-10T04:57:35.052Z,47.99
2017-02-10T04:58:45.670Z,48.18
2017-02-10T04:59:55.452Z,48.09
2017-02-10T05:01:05.185Z,48.09
2017-02-10T05:02:15.345Z,47.8
2017-02-10T05:03:24.622Z,48.28
2017-02-10T05:04:34.348Z,47.42
2017-02-10T05:05:44.124Z,47.61
2017-02-10T05:06:53.855Z,48.28
2017-02-10T05:08:03.140Z,48.09
2017-02-10T05:09:13.300Z,48.28
2017-02-10T05:10:22.586Z,47.99
2017-02-10T05:11:31.923Z,48.57
2017-02-10T05:12:41.692Z,47.99
2017-02-10T05:13:50.974Z,47.99
2017-02-10T05:15:00.703Z,47.8
2017-02-10T05:16:10.422Z,48.28
2017-02-10T05:17:20.196Z,48.09
2017-02-10T05:18:30.366Z,48.18
2017-02-10T05:19:39.648Z,48.38
2017-02-10T05:20:48.933Z,48.38
2017-02-10T05:21:58.662Z,48.18
2017-02-10T05:23:08.429Z,48.18
2017-02-10T05:24:18.595Z,48.57
2017-02-10T05:25:29.194Z,48.57
2017-02-10T05:26:38.479Z,48.47
2017-02-10T05:27:48.195Z,48.47
2017-02-10T05:28:58.413Z,48.66
2017-02-10T05:30:07.709Z,48.75
2017-02-10T05:31:17.431Z,48.47
2017-02-10T05:32:26.719Z,48.75
2017-02-10T05:33:36.448Z,48.57
2017-02-10T05:34:46.665Z,48.38
2017-02-10T05:35:56.818Z,48.38
2017-02-10T05:37:06.549Z,48.47
2017-02-10T05:38:16.715Z,48.66
2017-02-10T05:39:26.466Z,48.57
2017-02-10T05:40:37.713Z,48.57
2017-02-10T05:41:47.000Z,48.57
2017-02-10T05:42:57.153Z,48.57
2017-02-10T05:44:07.763Z,48.47
2017-02-10T05:45:17.484Z,48.57
2017-02-10T05:46:27.247Z,48.57
2017-02-10T05:47:36.974Z,48.38
2017-02-10T05:48:47.129Z,48.47
2017-02-10T05:49:57.294Z,48.57
2017-02-10T05:51:07.023Z,48.57
2017-02-10T05:52:16.902Z,48.66
2017-02-10T05:53:26.637Z,48.57
2017-02-10T05:54:37.227Z,48.38
2017-02-10T05:55:46.515Z,48.57
2017-02-10T05:56:56.676Z,48.66
2017-02-10T05:58:06.543Z,48.57
2017-02-10T05:59:16.717Z,48.57
2017-02-10T06:00:26.889Z,48.66
2017-02-10T06:01:36.618Z,48.57
2017-02-10T06:02:46.339Z,48.95
2017-02-10T06:03:56.557Z,48.66
2017-02-10T06:05:06.718Z,48.47
2017-02-10T06:06:16.907Z,48.47
2017-02-10T06:07:26.190Z,48.66
2017-02-10T06:08:35.921Z,48.47
2017-02-10T06:09:45.689Z,48.57
2017-02-10T06:10:55.845Z,48.57
2017-02-10T06:12:05.999Z,48.66
2017-02-10T06:13:15.282Z,49.04
2017-02-10T06:14:25.005Z,48.66
2017-02-10T06:15:36.081Z,48.66
2017-02-10T06:16:45.805Z,49.04
2017-02-10T06:17:55.086Z,49.14
2017-02-10T06:19:05.251Z,48.85
2017-02-10T06:20:15.428Z,48.66
2017-02-10T06:21:25.633Z,48.47
2017-02-10T06:22:34.918Z,48.75
2017-02-10T06:23:44.658Z,49.14
2017-02-10T06:24:54.833Z,48.85
2017-02-10T06:26:04.564Z,48.66
2017-02-10T06:27:14.335Z,48.95
2017-02-10T06:28:23.616Z,48.57
2017-02-10T06:29:33.345Z,48.35
2017-02-10T06:30:43.073Z,48.47
2017-02-10T06:31:52.350Z,48.66
2017-02-10T06:33:02.121Z,49.14
2017-02-10T06:34:12.285Z,48.85
2017-02-10T06:35:22.438Z,48.66
2017-02-10T06:36:31.721Z,49.14
2017-02-10T06:37:41.454Z,48.85
2017-02-10T06:38:51.229Z,49.04
2017-02-10T06:40:01.836Z,48.85
2017-02-10T06:41:11.569Z,49.3
2017-02-10T06:42:21.294Z,49.33
2017-02-10T06:43:31.017Z,49.33
2017-02-10T06:44:41.661Z,49.33
2017-02-10T06:45:51.385Z,49.33
2017-02-10T06:47:00.679Z,49.14
2017-02-10T06:48:10.408Z,49.23
2017-02-10T06:49:20.125Z,49.33
2017-02-10T06:50:29.461Z,49.3
2017-02-10T06:51:40.075Z,49.23
2017-02-10T06:52:49.805Z,48.93
2017-02-10T06:54:00.396Z,48.83
2017-02-10T06:55:10.115Z,48.83
2017-02-10T06:56:20.328Z,48.73
2017-02-10T06:57:30.480Z,48.83
2017-02-10T06:58:40.206Z,49.02
2017-02-10T06:59:50.367Z,48.83
2017-02-10T07:01:00.089Z,48.93
2017-02-10T07:02:10.296Z,48.93
2017-02-10T07:03:20.015Z,49.3
2017-02-10T07:04:30.615Z,49.21
2017-02-10T07:05:40.329Z,49.11
2017-02-10T07:06:49.609Z,49.02
2017-02-10T07:07:59.378Z,49.21
2017-02-10T07:09:09.969Z,49.21
2017-02-10T07:10:19.694Z,49.11
2017-02-10T07:11:29.851Z,48.93
2017-02-10T07:12:39.564Z,49.21
2017-02-10T07:13:49.341Z,48.93
2017-02-10T07:14:58.619Z,49.21
2017-02-10T07:16:08.783Z,49.21
2017-02-10T07:17:19.396Z,48.85
2017-02-10T07:18:29.561Z,48.93
2017-02-10T07:19:39.766Z,48.93
2017-02-10T07:20:49.965Z,49.59
2017-02-10T07:21:59.690Z,49.11
2017-02-10T07:23:09.418Z,49.11
2017-02-10T07:24:19.144Z,49.59
2017-02-10T07:25:28.947Z,49.33
2017-02-10T07:26:39.097Z,49.52
2017-02-10T07:27:50.136Z,49.71
2017-02-10T07:29:00.309Z,49.49
2017-02-10T07:30:09.594Z,49.98
2017-02-10T07:31:19.807Z,49.62
2017-02-10T07:32:29.088Z,49.98
2017-02-10T07:33:39.248Z,50.09
2017-02-10T07:34:48.973Z,50
2017-02-10T07:35:58.260Z,49.8
2017-02-10T07:37:08.459Z,50
2017-02-10T07:38:18.622Z,49.78
2017-02-10T07:39:28.346Z,49.62
2017-02-10T07:40:38.060Z,49.98
2017-02-10T07:41:47.340Z,49.88
2017-02-10T07:42:57.122Z,49.62
2017-02-10T07:44:07.282Z,49.59
2017-02-10T07:45:16.566Z,49.78
2017-02-10T07:46:26.294Z,50.16
2017-02-10T07:47:36.010Z,50.07
2017-02-10T07:48:45.784Z,49.3
2017-02-10T07:49:55.954Z,49.4
2017-02-10T07:51:05.227Z,49.59
2017-02-10T07:52:14.948Z,49.59
2017-02-10T07:53:25.108Z,49.49
2017-02-10T07:54:35.309Z,49.11
2017-02-10T07:55:46.348Z,50.07
2017-02-10T07:56:56.064Z,50.16
2017-02-10T07:58:06.714Z,50.74
2017-02-10T07:59:16.878Z,51.53
2017-02-10T08:00:26.208Z,51.21
2017-02-10T08:01:35.932Z,51.43
2017-02-10T08:02:45.218Z,51.34
2017-02-10T08:03:55.376Z,51.53
2017-02-10T08:05:05.533Z,51.34
2017-02-10T08:06:15.410Z,51.72
2017-02-10T08:07:24.691Z,51.53
2017-02-10T08:08:34.413Z,51.24
2017-02-10T08:09:44.130Z,51.15
2017-02-10T08:10:53.851Z,51.43
2017-02-10T08:12:03.179Z,51.53
2017-02-10T08:13:12.903Z,52.01
2017-02-10T08:14:22.187Z,52.29
2017-02-10T08:15:32.347Z,52.01
2017-02-10T08:16:42.057Z,52.48
2017-02-10T08:17:51.820Z,52.39
2017-02-10T08:19:02.423Z,52.29
2017-02-10T08:20:11.710Z,51.91
2017-02-10T08:21:22.312Z,51.91
2017-02-10T08:22:32.909Z,51.62
2017-02-10T08:23:42.242Z,51.34
2017-02-10T08:24:52.857Z,51.43
2017-02-10T08:26:02.590Z,51.15
2017-02-10T08:27:11.875Z,51.15
2017-02-10T08:28:21.157Z,50.57
2017-02-10T08:29:30.551Z,50.67
2017-02-10T08:30:40.707Z,50.67
2017-02-10T08:31:50.432Z,50.95
2017-02-10T08:33:00.144Z,50
2017-02-10T08:34:10.747Z,50.19
2017-02-10T08:35:20.960Z,50.67
2017-02-10T08:36:30.237Z,49.8
2017-02-10T08:37:39.958Z,49.8
2017-02-10T08:38:50.554Z,49.71
2017-02-10T08:39:59.844Z,49.62
2017-02-10T08:41:10.492Z,49.9
2017-02-10T08:42:21.095Z,49.9
2017-02-10T08:43:30.822Z,49.43
2017-02-10T08:44:40.114Z,49.43
2017-02-10T08:45:50.711Z,49.71
2017-02-10T08:47:00.639Z,49.14
2017-02-10T08:48:10.795Z,49.23
2017-02-10T08:49:20.524Z,49.23
2017-02-10T08:50:30.251Z,48.85
2017-02-10T08:51:39.537Z,49.04
2017-02-10T08:52:48.861Z,48.47
2017-02-10T08:53:59.017Z,48.57
2017-02-10T08:55:09.172Z,48.57
2017-02-10T08:56:18.457Z,48.66
2017-02-10T08:57:28.188Z,48.38
2017-02-10T08:58:37.528Z,48.28
2017-02-10T08:59:47.257Z,48.47
2017-02-10T09:00:56.978Z,48.28
2017-02-10T09:02:07.141Z,48.09
2017-02-10T09:03:16.868Z,48.02
2017-02-10T09:04:26.738Z,48.18
2017-02-10T09:05:36.455Z,47.42
2017-02-10T09:06:46.635Z,47.52
2017-02-10T09:07:56.805Z,47.61
2017-02-10T09:09:06.093Z,47.32
2017-02-10T09:10:16.071Z,47.42
2017-02-10T09:11:25.352Z,46.94
2017-02-10T09:12:35.514Z,47.71
2017-02-10T09:13:45.230Z,46.75
2017-02-10T09:14:54.514Z,47.13
2017-02-10T09:16:06.140Z,46.84
2017-02-10T09:17:15.880Z,47.03
2017-02-10T09:18:25.601Z,46.96
2017-02-10T09:19:35.778Z,46.84
2017-02-10T09:20:45.507Z,46.77
2017-02-10T09:21:56.161Z,46.37
2017-02-10T09:23:06.331Z,46.75
2017-02-10T09:24:16.061Z,46.46
2017-02-10T09:25:25.341Z,46.46
2017-02-10T09:26:35.505Z,46.37
2017-02-10T09:27:45.716Z,46.56
2017-02-10T09:28:55.457Z,46.67
2017-02-10T09:30:06.066Z,46.67
2017-02-10T09:31:16.235Z,46.48
2017-02-10T09:32:26.403Z,46.77
2017-02-10T09:33:35.732Z,46.96
2017-02-10T09:34:45.467Z,46.39
2017-02-10T09:35:55.194Z,46.08
2017-02-10T09:37:04.922Z,46.2
2017-02-10T09:38:15.089Z,46.39
2017-02-10T09:39:24.863Z,46.58
2017-02-10T09:40:34.156Z,46.1
2017-02-10T09:41:43.442Z,45.91
2017-02-10T09:42:53.163Z,46.1
2017-02-10T09:44:02.452Z,45.91
2017-02-10T09:45:12.380Z,45.62
2017-02-10T09:46:22.093Z,45.81
2017-02-10T09:47:31.814Z,45.72
2017-02-10T09:48:41.577Z,45.91
2017-02-10T09:49:50.864Z,45.72
2017-02-10T09:51:01.079Z,45.72
2017-02-10T09:52:10.808Z,45.43
2017-02-10T09:53:20.528Z,45.34
2017-02-10T09:54:30.685Z,45.53
2017-02-10T09:55:41.288Z,45.43
2017-02-10T09:56:51.507Z,45.24
2017-02-10T09:58:02.120Z,45.43
2017-02-10T09:59:11.407Z,45.43
2017-02-10T10:00:21.575Z,45.53
2017-02-10T10:01:31.299Z,45.53
2017-02-10T10:02:40.783Z,45.34
2017-02-10T10:03:50.494Z,45.53
2017-02-10T10:05:00.654Z,45.53
2017-02-10T10:06:09.938Z,45.43
2017-02-10T10:07:19.664Z,45.15
2017-02-10T10:08:29.873Z,45.53
2017-02-10T10:09:39.165Z,45.62
2017-02-10T10:10:48.882Z,45.43
2017-02-10T10:11:58.611Z,45.34
2017-02-10T10:13:08.770Z,45.15
2017-02-10T10:14:18.539Z,44.95
2017-02-10T10:15:28.263Z,45.05
2017-02-10T10:16:37.985Z,45.05
2017-02-10T10:17:47.705Z,44.95
2017-02-10T10:18:57.435Z,45.05
2017-02-10T10:20:08.523Z,44.67
2017-02-10T10:21:19.120Z,44.86
2017-02-10T10:22:29.291Z,44.67
2017-02-10T10:23:39.016Z,44.67
2017-02-10T10:24:48.301Z,44.76
2017-02-10T10:25:57.626Z,44.86
2017-02-10T10:27:07.788Z,45.15
2017-02-10T10:28:17.982Z,44.95
2017-02-10T10:29:28.152Z,44.95
2017-02-10T10:30:38.751Z,44.86
2017-02-10T10:31:48.092Z,44.86
2017-02-10T10:32:57.377Z,44.95
2017-02-10T10:34:07.095Z,44.95
2017-02-10T10:35:16.824Z,44.86
2017-02-10T10:36:26.988Z,44.86
2017-02-10T10:37:36.913Z,44.95
2017-02-10T10:38:47.509Z,45.05
2017-02-10T10:39:57.236Z,45.05
2017-02-10T10:41:07.402Z,45.05
2017-02-10T10:42:16.682Z,44.95
2017-02-10T10:43:27.327Z,44.67
2017-02-10T10:44:37.926Z,44.38
2017-02-10T10:45:48.087Z,44.48
2017-02-10T10:46:58.243Z,44.19
2017-02-10T10:48:07.531Z,44.38
2017-02-10T10:49:17.738Z,44.48
2017-02-10T10:50:27.463Z,44.38
2017-02-10T10:51:37.185Z,44.38
2017-02-10T10:52:47.778Z,44
2017-02-10T10:53:57.495Z,44.09
2017-02-10T10:55:06.828Z,43.8
2017-02-10T10:56:16.555Z,44.38
2017-02-10T10:57:26.283Z,44.29
2017-02-10T10:58:36.012Z,44.09
2017-02-10T10:59:45.317Z,44.19
2017-02-10T11:00:54.801Z,44.09
2017-02-10T11:02:04.083Z,43.9
2017-02-10T11:03:13.395Z,43.9
2017-02-10T11:04:23.562Z,44
2017-02-10T11:05:33.741Z,43.9
2017-02-10T11:06:45.200Z,43.71
2017-02-10T11:07:55.810Z,43.71
2017-02-10T11:09:05.091Z,43.52
2017-02-10T11:10:14.815Z,43.43
2017-02-10T11:11:24.545Z,43.62
2017-02-10T11:12:34.325Z,43.52
2017-02-10T11:13:44.055Z,43.8
2017-02-10T11:14:54.210Z,43.8
2017-02-10T11:16:04.372Z,43.71
2017-02-10T11:17:14.523Z,43.33
2017-02-10T11:18:24.290Z,43.62
2017-02-10T11:19:34.019Z,43.43
2017-02-10T11:20:44.183Z,43.43
2017-02-10T11:21:53.903Z,43.52
2017-02-10T11:23:03.184Z,43.8
2017-02-10T11:24:13.398Z,43.62
2017-02-10T11:25:23.122Z,43.52
2017-02-10T11:26:33.272Z,43.43
2017-02-10T11:27:42.990Z,43.52
2017-02-10T11:28:53.153Z,43.52
2017-02-10T11:30:03.796Z,43.33
2017-02-10T11:31:13.072Z,43.43
2017-02-10T11:32:22.802Z,43.52
2017-02-10T11:33:32.520Z,43.63
2017-02-10T11:34:42.247Z,43.23
2017-02-10T11:35:52.461Z,43.43
2017-02-10T11:37:02.182Z,43.33
2017-02-10T11:38:12.781Z,43.16
2017-02-10T11:39:22.066Z,43.06
2017-02-10T11:40:31.787Z,43.16
2017-02-10T11:41:41.127Z,42.97
2017-02-10T11:42:51.297Z,42.49
2017-02-10T11:44:01.903Z,42.77
2017-02-10T11:45:11.631Z,42.68
2017-02-10T11:46:21.787Z,42.77
2017-02-10T11:47:31.554Z,42.77
2017-02-10T11:48:41.283Z,42.68
2017-02-10T11:49:51.453Z,42.77
2017-02-10T11:51:01.617Z,42.4
2017-02-10T11:52:11.779Z,42.97
2017-02-10T11:53:21.548Z,42.58
2017-02-10T11:54:31.713Z,42.3
2017-02-10T11:55:40.997Z,42.4
2017-02-10T11:56:50.719Z,42.2
2017-02-10T11:58:00.875Z,42.2
2017-02-10T11:59:11.960Z,42.11
2017-02-10T12:00:22.123Z,42.49
2017-02-10T12:01:31.853Z,42.4
2017-02-10T12:02:41.580Z,42.2
2017-02-10T12:03:50.864Z,42.2
2017-02-10T12:05:01.088Z,42.58
2017-02-10T12:06:11.258Z,42.77
2017-02-10T12:07:20.977Z,42.87
2017-02-10T12:08:30.696Z,42.58
2017-02-10T12:09:40.421Z,42.87
2017-02-10T12:10:49.761Z,42.87
2017-02-10T12:11:59.925Z,42.58
2017-02-10T12:13:10.087Z,42.68
2017-02-10T12:14:19.814Z,42.87
2017-02-10T12:15:29.973Z,42.77
2017-02-10T12:16:40.635Z,42.77
2017-02-10T12:17:50.797Z,43.18
2017-02-10T12:19:00.516Z,42.8
2017-02-10T12:20:10.679Z,42.9
2017-02-10T12:21:20.402Z,42.8
2017-02-10T12:22:29.737Z,43.08
2017-02-10T12:23:39.463Z,42.6
2017-02-10T12:24:49.627Z,42.51
2017-02-10T12:26:00.230Z,42.51
2017-02-10T12:27:09.510Z,42.51
2017-02-10T12:28:19.284Z,42.51
2017-02-10T12:29:28.570Z,42.82
2017-02-10T12:30:38.298Z,42.91
2017-02-10T12:31:48.902Z,42.63
2017-02-10T12:32:59.063Z,42.72
2017-02-10T12:34:09.278Z,43.01
2017-02-10T12:35:19.437Z,42.82
2017-02-10T12:36:29.158Z,42.82
2017-02-10T12:37:38.878Z,42.91
2017-02-10T12:38:48.163Z,42.91
2017-02-10T12:39:58.812Z,42.91
2017-02-10T12:41:08.093Z,42.91
2017-02-10T12:42:17.835Z,43.1
2017-02-10T12:43:27.554Z,42.91
2017-02-10T12:44:37.717Z,42.72
2017-02-10T12:45:47.490Z,43.01
2017-02-10T12:46:57.211Z,43.01
2017-02-10T12:48:06.940Z,42.63
2017-02-10T12:49:16.653Z,42.91
2017-02-10T12:50:26.818Z,42.53
2017-02-10T12:51:36.152Z,42.53
2017-02-10T12:52:45.881Z,42.91
2017-02-10T12:53:56.038Z,42.91
2017-02-10T12:55:06.191Z,42.53
2017-02-10T12:56:15.915Z,42.82
2017-02-10T12:57:26.488Z,42.82
2017-02-10T12:58:36.217Z,42.63
2017-02-10T12:59:47.264Z,42.63
2017-02-10T13:00:57.000Z,42.91
2017-02-10T13:02:07.171Z,43.1
2017-02-10T13:03:16.951Z,42.72
2017-02-10T13:04:26.713Z,42.82
2017-02-10T13:05:36.894Z,42.72
2017-02-10T13:06:46.179Z,42.82
2017-02-10T13:07:55.464Z,42.82
2017-02-10T13:09:05.689Z,42.63
2017-02-10T13:10:15.414Z,42.72
2017-02-10T13:11:25.140Z,42.82
2017-02-10T13:12:34.859Z,42.51
2017-02-10T13:13:44.581Z,42.91
2017-02-10T13:14:54.356Z,42.6
2017-02-10T13:16:03.656Z,42.99
2017-02-10T13:17:13.821Z,42.51
2017-02-10T13:18:23.109Z,42.51
2017-02-10T13:19:33.697Z,42.8
2017-02-10T13:20:43.473Z,42.7
2017-02-10T13:21:53.187Z,42.51
2017-02-10T13:23:02.467Z,42.6
2017-02-10T13:24:12.625Z,42.72
2017-02-10T13:25:22.358Z,43.08
2017-02-10T13:26:32.567Z,43.08
2017-02-10T13:27:41.855Z,42.8
2017-02-10T13:28:52.902Z,42.7
2017-02-10T13:30:02.631Z,42.9
2017-02-10T13:31:11.919Z,42.51
2017-02-10T13:32:21.261Z,42.8
2017-02-10T13:33:31.426Z,43.18
2017-02-10T13:34:41.155Z,42.9
2017-02-10T13:35:50.435Z,43.18
2017-02-10T13:37:00.600Z,43.08
2017-02-10T13:38:10.368Z,43.27
2017-02-10T13:39:20.528Z,43.27
2017-02-10T13:40:30.689Z,43.27
2017-02-10T13:41:40.843Z,43.37
2017-02-10T13:42:50.560Z,43.47
2017-02-10T13:44:00.327Z,43.37
2017-02-10T13:45:10.924Z,43.44
2017-02-10T13:46:20.207Z,43.35
2017-02-10T13:47:29.928Z,43.35
2017-02-10T13:48:39.654Z,43.26
2017-02-10T13:49:49.434Z,43.35
2017-02-10T13:50:59.164Z,43.35
2017-02-10T13:52:08.885Z,43.35
2017-02-10T13:53:19.049Z,43.35
2017-02-10T13:54:29.195Z,43.26
2017-02-10T13:55:38.529Z,43.35
2017-02-10T13:56:47.814Z,43.35
2017-02-10T13:57:57.099Z,43.26
2017-02-10T13:59:07.704Z,43.35
2017-02-10T14:00:17.860Z,43.35
2017-02-10T14:01:27.645Z,43.26
2017-02-10T14:02:37.803Z,43.35
2017-02-10T14:03:47.114Z,43.35
2017-02-10T14:04:56.844Z,43.35
2017-02-10T14:06:06.591Z,43.35
2017-02-10T14:07:16.356Z,43.44
2017-02-10T14:08:26.516Z,43.44
2017-02-10T14:09:35.807Z,43.44
2017-02-10T14:10:45.535Z,43.35
2017-02-10T14:11:55.257Z,43.26
2017-02-10T14:13:04.598Z,43.35
2017-02-10T14:14:14.335Z,43.35
2017-02-10T14:15:24.064Z,43.44
2017-02-10T14:16:34.227Z,43.35
2017-02-10T14:17:43.953Z,43.26
2017-02-10T14:18:53.723Z,43.35
2017-02-10T14:20:03.880Z,43.26
2017-02-10T14:21:13.161Z,43.44
2017-02-10T14:22:24.632Z,43.54
2017-02-10T14:23:33.917Z,43.54
2017-02-10T14:24:44.281Z,43.73
2017-02-10T14:25:54.891Z,43.63
2017-02-10T14:27:04.172Z,43.54
2017-02-10T14:28:13.901Z,43.23
2017-02-10T14:29:24.056Z,43.44
2017-02-10T14:30:33.392Z,43.43
2017-02-10T14:31:42.681Z,43.52
2017-02-10T14:32:52.849Z,43.52
2017-02-10T14:34:02.589Z,43.52
2017-02-10T14:35:12.310Z,43.62
2017-02-10T14:36:22.975Z,43.43
2017-02-10T14:37:33.134Z,43.62
2017-02-10T14:38:43.296Z,43.52
2017-02-10T14:39:53.011Z,43.43
2017-02-10T14:41:03.610Z,43.62
2017-02-10T14:42:12.946Z,43.33
2017-02-10T14:43:23.157Z,43.33
2017-02-10T14:44:33.322Z,43.33
2017-02-10T14:45:43.490Z,43.8
2017-02-10T14:46:53.227Z,43.52
2017-02-10T14:48:03.433Z,43.43
2017-02-10T14:49:13.163Z,43.71
2017-02-10T14:50:22.890Z,43.8
2017-02-10T14:51:32.609Z,43.8
2017-02-10T14:52:41.915Z,43.9
2017-02-10T14:53:52.132Z,44
2017-02-10T14:55:02.300Z,43.9
2017-02-10T14:56:11.589Z,43.9
2017-02-10T14:57:21.307Z,44
2017-02-10T14:58:31.472Z,43.8
2017-02-10T14:59:40.801Z,43.8
2017-02-10T15:00:50.527Z,44
2017-02-10T15:02:00.248Z,44
2017-02-10T15:03:09.532Z,44.09